Time,TemperatureF,DewpointF,PressureIn,WindDirection,WindDirectionDegrees,WindSpeedMPH,WindSpeedGustMPH,Humidity,HourlyPrecipIn,Conditions,Clouds,dailyrainin,SoftwareType,DateUTC
2013-05-06 00:00:00,63.5,45.6,29.97,North,354,0.0,0.0,52,0.00,,,0.00,VWS V12.07,2013-05-06 05:00:00,
2013-05-06 00:30:00,63.5,45.6,29.96,North,354,0.0,0.0,52,0.00,,,0.00,VWS V12.07,2013-05-06 05:30:00,
2013-05-06 00:45:00,63.5,45.6,29.96,North,354,0.0,0.0,52,0.00,,,0.00,VWS V12.07,2013-05-06 05:45:00,
2013-05-06 01:00:00,63.5,45.6,29.96,North,354,0.0,0.0,52,0.00,,,0.00,VWS V12.07,2013-05-06 06:00:00,
2013-05-06 01:15:00,63.5,45.6,29.96,North,354,0.0,0.0,52,0.00,,,0.00,VWS V12.07,2013-05-06 06:15:00,
2013-05-06 01:30:00,63.5,45.6,29.96,North,354,0.0,0.0,52,0.00,,,0.00,VWS V12.07,2013-05-06 06:30:00,
2013-05-06 01:45:00,63.5,45.6,29.96,North,354,0.0,0.0,52,0.00,,,0.00,VWS V12.07,2013-05-06 06:45:00,
2013-05-06 02:00:00,63.5,45.6,29.95,North,354,0.0,0.0,52,0.00,,,0.00,VWS V12.07,2013-05-06 07:00:00,
2013-05-06 02:30:00,63.5,45.6,29.95,North,354,0.0,0.0,52,0.00,,,0.00,VWS V12.07,2013-05-06 07:30:00,
2013-05-06 02:45:00,63.5,45.6,29.95,North,354,0.0,0.0,52,0.00,,,0.00,VWS V12.07,2013-05-06 07:45:00,
2013-05-06 03:00:00,63.5,45.6,29.95,North,354,0.0,0.0,52,0.00,,,0.00,VWS V12.07,2013-05-06 08:00:00,
2013-05-06 03:30:00,63.5,45.6,29.94,North,354,0.0,0.0,52,0.00,,,0.00,VWS V12.07,2013-05-06 08:30:00,
2013-05-06 03:45:00,63.5,45.6,29.94,North,354,0.0,0.0,52,0.00,,,0.00,VWS V12.07,2013-05-06 08:45:00,
2013-05-06 04:00:00,63.5,45.6,29.94,North,354,0.0,0.0,52,0.00,,,0.00,VWS V12.07,2013-05-06 09:00:00,
2013-05-06 04:30:00,63.5,45.6,29.95,North,354,0.0,0.0,52,0.00,,,0.00,VWS V12.07,2013-05-06 09:30:00,
2013-05-06 04:45:00,63.5,45.6,29.95,North,354,0.0,0.0,52,0.00,,,0.00,VWS V12.07,2013-05-06 09:45:00,
2013-05-06 05:00:00,63.5,45.6,29.95,North,354,0.0,0.0,52,0.00,,,0.00,VWS V12.07,2013-05-06 10:00:00,
2013-05-06 05:30:00,63.5,45.6,29.95,North,354,0.0,0.0,52,0.00,,,0.00,VWS V12.07,2013-05-06 10:30:00,
2013-05-06 05:45:00,63.5,45.6,29.95,North,354,0.0,0.0,52,0.00,,,0.00,VWS V12.07,2013-05-06 10:45:00,
2013-05-06 06:00:00,63.5,45.6,29.95,North,354,0.0,0.0,52,0.00,,,0.00,VWS V12.07,2013-05-06 11:00:00,
2013-05-06 06:30:00,63.5,45.6,29.96,North,354,0.0,0.0,52,0.00,,,0.00,VWS V12.07,2013-05-06 11:30:00,
2013-05-06 06:45:00,63.5,45.6,29.96,North,354,0.0,0.0,52,0.00,,,0.00,VWS V12.07,2013-05-06 11:45:00,
2013-05-06 07:00:00,63.5,45.6,29.97,North,354,0.0,0.0,52,0.00,,,0.00,VWS V12.07,2013-05-06 12:00:00,
2013-05-06 07:30:00,63.5,45.6,29.99,North,354,0.0,0.0,52,0.00,,,0.00,VWS V12.07,2013-05-06 12:30:00,
2013-05-06 07:45:00,63.5,45.6,29.98,North,354,0.0,0.0,52,0.00,,,0.00,VWS V12.07,2013-05-06 12:45:00,
2013-05-06 08:00:00,63.5,45.6,29.99,North,354,0.0,0.0,52,0.00,,,0.00,VWS V12.07,2013-05-06 13:00:00,
2013-05-06 08:30:00,63.5,45.6,29.99,North,354,0.0,0.0,52,0.00,,,0.00,VWS V12.07,2013-05-06 13:30:00,
2013-05-06 08:45:00,63.5,45.6,29.99,North,354,0.0,0.0,52,0.00,,,0.00,VWS V12.07,2013-05-06 13:45:00,
2013-05-06 09:00:00,63.5,45.6,29.99,North,354,0.0,0.0,52,0.00,,,0.00,VWS V12.07,2013-05-06 14:00:00,
2013-05-06 09:30:00,63.5,45.6,29.99,North,354,0.0,0.0,52,0.00,,,0.00,VWS V12.07,2013-05-06 14:30:00,
2013-05-06 09:45:00,63.5,45.6,29.99,North,354,0.0,0.0,52,0.00,,,0.00,VWS V12.07,2013-05-06 14:45:00,
2013-05-06 10:00:00,63.5,45.6,29.99,North,354,0.0,0.0,52,0.00,,,0.00,VWS V12.07,2013-05-06 15:00:00,
2013-05-06 10:30:00,61.3,42.5,29.99,North,356,0.0,3.0,50,0.00,,,0.00,VWS V12.07,2013-05-06 15:30:00,
2013-05-06 10:45:00,63.2,43.2,29.98,North,355,0.0,4.0,48,0.00,,,0.00,VWS V12.07,2013-05-06 15:45:00,
2013-05-06 11:00:00,65.2,43.3,29.98,NNW,341,0.0,4.0,45,0.00,,,0.00,VWS V12.07,2013-05-06 16:00:00,
2013-05-06 11:30:00,67.1,44.5,29.97,NW,319,3.0,6.0,44,0.00,,,0.00,VWS V12.07,2013-05-06 16:30:00,
2013-05-06 11:45:00,67.8,45.1,29.97,WNW,294,0.0,6.0,44,0.00,,,0.00,VWS V12.07,2013-05-06 16:45:00,
2013-05-06 12:00:00,69.4,44.7,29.96,WNW,293,0.0,6.0,41,0.00,,,0.00,VWS V12.07,2013-05-06 17:00:00,
2013-05-06 12:30:00,73.0,42.2,29.94,NNW,336,0.0,0.0,33,0.00,,,0.00,VWS V12.07,2013-05-06 17:30:00,
2013-05-06 12:45:00,72.7,45.0,29.95,NW,321,0.0,5.0,37,0.00,,,0.00,VWS V12.07,2013-05-06 17:45:00,
2013-05-06 13:00:00,72.8,43.6,29.94,NNW,336,0.0,6.0,35,0.00,,,0.00,VWS V12.07,2013-05-06 18:00:00,
2013-05-06 13:30:00,74.6,36.5,29.93,NNW,329,0.0,6.0,25,0.00,,,0.00,VWS V12.07,2013-05-06 18:30:00,
2013-05-06 13:45:00,75.4,34.0,29.92,West,272,3.0,10.0,22,0.00,,,0.00,VWS V12.07,2013-05-06 18:45:00,
2013-05-06 14:00:00,75.1,36.9,29.92,NNW,344,0.0,10.0,25,0.00,,,0.00,VWS V12.07,2013-05-06 19:00:00,
2013-05-06 14:15:00,74.6,36.5,29.92,NNW,343,2.0,6.0,25,0.00,,,0.00,VWS V12.07,2013-05-06 19:15:00,
2013-05-06 14:30:00,76.5,37.1,29.91,West,263,2.0,9.0,24,0.00,,,0.00,VWS V12.07,2013-05-06 19:30:00,
2013-05-06 14:45:00,74.9,37.7,29.91,WSW,256,0.0,12.0,26,0.00,,,0.00,VWS V12.07,2013-05-06 19:45:00,
2013-05-06 15:00:00,74.7,37.6,29.91,NNE,12,0.0,12.0,26,0.00,,,0.00,VWS V12.07,2013-05-06 20:00:00,
2013-05-06 15:15:00,76.1,37.8,29.90,West,278,0.0,7.0,25,0.00,,,0.00,VWS V12.07,2013-05-06 20:15:00,
2013-05-06 15:30:00,76.0,36.6,29.89,NNW,347,3.0,10.0,24,0.00,,,0.00,VWS V12.07,2013-05-06 20:30:00,
2013-05-06 15:45:00,75.8,36.5,29.89,North,0,6.0,7.0,24,0.00,,,0.00,VWS V12.07,2013-05-06 20:45:00,
2013-05-06 16:00:00,77.0,37.5,29.88,NW,310,1.0,10.0,24,0.00,,,0.00,VWS V12.07,2013-05-06 21:00:00,
2013-05-06 16:30:00,73.9,36.9,29.88,WSW,257,0.0,13.0,26,0.00,,,0.00,VWS V12.07,2013-05-06 21:30:00,
2013-05-06 16:45:00,73.7,36.7,29.88,West,274,0.0,10.0,26,0.00,,,0.00,VWS V12.07,2013-05-06 21:45:00,
2013-05-06 17:00:00,73.3,36.4,29.88,West,276,0.0,11.0,26,0.00,,,0.00,VWS V12.07,2013-05-06 22:00:00,
2013-05-06 17:15:00,73.7,35.7,29.88,West,276,0.0,6.0,25,0.00,,,0.00,VWS V12.07,2013-05-06 22:15:00,
2013-05-06 17:30:00,75.4,36.1,29.88,West,276,0.0,6.0,24,0.00,,,0.00,VWS V12.07,2013-05-06 22:30:00,
2013-05-06 17:45:00,75.1,35.9,29.87,WNW,297,0.0,5.0,24,0.00,,,0.00,VWS V12.07,2013-05-06 22:45:00,
2013-05-06 18:00:00,75.4,36.1,29.87,NW,310,0.0,5.0,24,0.00,,,0.00,VWS V12.07,2013-05-06 23:00:00,
2013-05-06 18:30:00,74.6,36.5,29.88,NW,310,0.0,3.0,25,0.00,,,0.00,VWS V12.07,2013-05-06 23:30:00,
2013-05-06 18:45:00,75.3,36.0,29.87,NW,310,0.0,1.0,24,0.00,,,0.00,VWS V12.07,2013-05-06 23:45:00,
2013-05-06 19:00:00,75.3,36.0,29.87,NW,310,0.0,3.0,24,0.00,,,0.00,VWS V12.07,2013-05-07 00:00:00,
2013-05-06 19:30:00,74.4,35.3,29.87,NW,310,0.0,3.0,24,0.00,,,0.00,VWS V12.07,2013-05-07 00:30:00,
2013-05-06 19:45:00,74.0,35.0,29.88,NW,310,0.0,1.0,24,0.00,,,0.00,VWS V12.07,2013-05-07 00:45:00,
2013-05-06 20:00:00,73.3,35.4,29.88,NW,310,0.0,1.0,25,0.00,,,0.00,VWS V12.07,2013-05-07 01:00:00,
2013-05-06 20:30:00,72.8,36.0,29.88,NW,310,0.0,0.0,26,0.00,,,0.00,VWS V12.07,2013-05-07 01:30:00,
2013-05-06 20:45:00,72.8,36.0,29.90,NW,310,0.0,0.0,26,0.00,,,0.00,VWS V12.07,2013-05-07 01:45:00,
2013-05-06 21:00:00,72.8,36.0,29.90,NW,310,0.0,0.0,26,0.00,,,0.00,VWS V12.07,2013-05-07 02:00:00,
2013-05-06 21:30:00,72.8,36.0,29.90,NW,310,0.0,0.0,26,0.00,,,0.00,VWS V12.07,2013-05-07 02:30:00,
2013-05-06 21:45:00,72.8,36.0,29.91,NW,310,0.0,0.0,26,0.00,,,0.00,VWS V12.07,2013-05-07 02:45:00,
2013-05-06 22:00:00,72.8,36.0,29.91,NW,310,0.0,0.0,26,0.00,,,0.00,VWS V12.07,2013-05-07 03:00:00,
2013-05-06 22:30:00,72.8,36.0,29.91,NW,310,0.0,0.0,26,0.00,,,0.00,VWS V12.07,2013-05-07 03:30:00,
2013-05-06 22:45:00,72.8,36.0,29.91,NW,310,0.0,0.0,26,0.00,,,0.00,VWS V12.07,2013-05-07 03:45:00,
2013-05-06 23:00:00,72.8,36.0,29.90,NW,310,0.0,0.0,26,0.00,,,0.00,VWS V12.07,2013-05-07 04:00:00,
2013-05-06 23:30:00,72.8,36.0,29.90,NW,310,0.0,0.0,26,0.00,,,0.00,VWS V12.07,2013-05-07 04:30:00,
2013-05-06 23:45:00,72.8,36.0,29.90,NW,310,0.0,0.0,26,0.00,,,0.00,VWS V12.07,2013-05-07 04:45:00,